Time;durP1;ratioP1;P1;durP2;ratioP2;P2;SDS_P1;SDS_P2;PMS_P1;PMS_P2;Temp;Humidity;BMP_temperature;BMP_pressure;BME280_temperature;BME280_humidity;BME280_pressure;Samples;Min_cycle;Max_cycle;Signal;HPM_P1;HPM_P2
2023/08/16 00:01:28;;;;;;;10.53;7.17;;;;;;;-143.84;75.34;45047.16;5088725;28;20455;-56
2023/08/16 00:03:55;;;;;;;12.00;6.63;;;;;;;-143.84;76.49;45033.84;5089011;28;20495;-56
2023/08/16 00:06:22;;;;;;;9.00;6.93;;;;;;;-143.84;77.60;45049.06;5089119;28;20505;-57
2023/08/16 00:08:53;;;;;;;11.07;6.70;;;;;;;-143.84;77.89;45041.44;5088947;28;20443;-56
2023/08/16 00:11:20;;;;;;;9.00;6.97;;;;;;;-143.84;78.37;45075.72;5088984;28;20451;-55
2023/08/16 00:13:47;;;;;;;13.53;6.93;;;;;;;-143.84;78.65;45030.03;5089119;28;20489;-55
2023/08/16 00:16:14;;;;;;;16.03;8.33;;;;;;;-143.84;78.77;45052.88;5088785;28;20895;-55
2023/08/16 00:18:41;;;;;;;6.83;6.13;;;;;;;-143.84;78.82;45026.22;5088703;28;20469;-55
2023/08/16 00:21:09;;;;;;;8.40;6.93;;;;;;;-143.84;79.21;45050.97;5089691;28;20436;-52
2023/08/16 00:23:36;;;;;;;16.60;6.97;;;;;;;-143.84;79.33;45041.44;5089750;28;20948;-52
2023/08/16 00:26:03;;;;;;;9.40;6.90;;;;;;;-143.84;79.51;45056.69;5089971;28;20428;-53
2023/08/16 00:28:30;;;;;;;14.40;6.70;;;;;;;-143.84;79.77;45049.06;5089344;28;20528;-53
2023/08/16 00:30:58;;;;;;;15.33;7.50;;;;;;;-143.84;79.64;45068.13;5089790;28;20493;-52
2023/08/16 00:33:25;;;;;;;9.67;5.83;;;;;;;-143.84;79.99;45028.13;5093302;28;20876;-53
2023/08/16 00:35:53;;;;;;;9.23;6.50;;;;;;;-143.84;79.74;45037.66;5093751;28;20493;-53
2023/08/16 00:38:20;;;;;;;11.23;6.70;;;;;;;-143.84;79.74;45035.75;5092893;28;20427;-53
2023/08/16 00:40:51;;;;;;;7.53;6.70;;;;;;;-143.84;79.70;45056.69;5092760;28;20447;-53
2023/08/16 00:43:19;;;;;;;15.07;6.90;;;;;;;-143.84;80.17;45031.94;5092876;28;20481;-53
2023/08/16 00:45:48;;;;;;;16.07;6.10;;;;;;;-143.84;80.34;45071.91;5092998;28;20836;-53
2023/08/16 00:48:17;;;;;;;10.37;6.80;;;;;;;-143.84;80.62;45052.88;5093083;28;21228;-53
2023/08/16 00:50:45;;;;;;;9.80;6.20;;;;;;;-143.84;80.55;45043.34;5092613;28;20444;-52
2023/08/16 00:53:13;;;;;;;12.67;7.10;;;;;;;-143.84;80.42;45052.88;5093266;28;20466;-53
2023/08/16 00:55:40;;;;;;;10.97;6.50;;;;;;;-143.84;80.44;45052.88;5093105;28;20822;-52
2023/08/16 00:58:08;;;;;;;11.67;6.70;;;;;;;-143.84;80.43;45033.84;5093150;28;20523;-53
2023/08/16 01:00:35;;;;;;;22.83;6.47;;;;;;;-143.84;80.28;45039.53;5092898;28;20431;-52
2023/08/16 01:03:02;;;;;;;8.80;6.23;;;;;;;-143.84;80.08;45062.41;5091809;28;20541;-53
2023/08/16 01:05:32;;;;;;;10.67;6.93;;;;;;;-143.84;79.76;45050.97;5092463;28;20473;-53
2023/08/16 01:08:00;;;;;;;9.23;6.63;;;;;;;-143.84;79.81;45071.91;5092676;28;20483;-53
2023/08/16 01:10:36;;;;;;;6.90;6.30;;;;;;;-143.84;79.67;45037.66;5092828;28;20443;-52
2023/08/16 01:13:11;;;;;;;14.47;5.70;;;;;;;-143.84;79.53;45073.81;5092619;28;20958;-53
2023/08/16 01:15:42;;;;;;;8.70;6.20;;;;;;;-143.84;79.59;45030.03;5092264;28;20444;-56
2023/08/16 01:18:10;;;;;;;9.10;5.60;;;;;;;-143.84;79.45;45026.22;5091822;28;20440;-56
2023/08/16 01:20:40;;;;;;;10.30;6.00;;;;;;;-143.84;79.13;45018.59;5091768;28;20944;-56
2023/08/16 01:23:10;;;;;;;9.80;7.10;;;;;;;-143.84;78.93;45024.31;5091538;28;20448;-56
2023/08/16 01:25:48;;;;;;;14.30;6.37;;;;;;;-143.84;78.65;45035.75;5091827;28;20866;-56
2023/08/16 01:28:18;;;;;;;9.97;5.33;;;;;;;-143.84;78.69;45045.25;5091917;28;20468;-56
2023/08/16 01:30:46;;;;;;;10.40;5.50;;;;;;;-143.84;79.03;45026.22;5091939;28;20872;-56
2023/08/16 01:33:14;;;;;;;15.63;5.63;;;;;;;-143.84;79.14;45043.34;5091707;28;20443;-56
2023/08/16 01:35:41;;;;;;;18.53;6.33;;;;;;;-143.84;79.19;45062.41;5091310;28;20505;-56
2023/08/16 01:38:12;;;;;;;14.20;6.23;;;;;;;-143.84;79.28;45022.41;5091398;28;20433;-56
2023/08/16 01:40:43;;;;;;;12.83;6.30;;;;;;;-143.84;79.73;45049.06;5091497;28;20440;-56
2023/08/16 01:43:13;;;;;;;10.50;5.70;;;;;;;-143.84;80.12;45056.69;5091398;28;20477;-55
2023/08/16 01:45:41;;;;;;;10.00;6.40;;;;;;;-143.84;80.37;45031.94;5091486;28;20502;-55
2023/08/16 01:48:11;;;;;;;11.07;6.00;;;;;;;-143.84;80.55;45026.22;5091392;28;20514;-56
2023/08/16 01:50:38;;;;;;;9.27;6.53;;;;;;;-143.84;80.72;45062.41;5091087;28;20443;-56
2023/08/16 01:53:05;;;;;;;16.97;6.03;;;;;;;-143.84;80.59;45022.41;5091213;28;20432;-55
2023/08/16 01:55:32;;;;;;;16.43;6.60;;;;;;;-143.84;80.81;45028.13;5091330;28;20447;-56
2023/08/16 01:58:00;;;;;;;16.07;5.83;;;;;;;-143.84;80.95;45037.66;5090965;28;20473;-56
2023/08/16 02:00:27;;;;;;;14.00;6.70;;;;;;;-143.84;81.11;45049.06;5091025;28;20479;-56
2023/08/16 02:02:55;;;;;;;8.73;6.10;;;;;;;-143.84;81.66;45045.25;5090819;28;20483;-56
2023/08/16 02:05:22;;;;;;;11.73;5.63;;;;;;;-143.84;81.79;45052.88;5090874;28;20436;-56
2023/08/16 02:07:50;;;;;;;13.13;5.47;;;;;;;-143.84;82.29;45028.13;5090853;28;20479;-56
2023/08/16 02:10:17;;;;;;;12.47;5.90;;;;;;;-143.84;82.69;45026.22;5090341;28;20451;-55
2023/08/16 02:12:44;;;;;;;9.03;6.30;;;;;;;-143.84;82.89;45037.66;5090694;28;21254;-55
2023/08/16 02:15:11;;;;;;;8.13;5.90;;;;;;;-143.84;83.05;45039.53;5090772;28;20489;-56
2023/08/16 02:17:38;;;;;;;13.67;6.40;;;;;;;-143.84;83.41;45043.34;5090697;28;20493;-56
2023/08/16 02:20:08;;;;;;;14.17;6.10;;;;;;;-143.84;83.96;45037.66;5090599;28;20436;-55
2023/08/16 02:22:35;;;;;;;13.50;5.50;;;;;;;-143.84;83.85;45123.34;5090567;28;20458;-56
2023/08/16 02:25:03;;;;;;;8.10;6.00;;;;;;;-143.84;84.12;45058.59;5090605;28;20436;-56
2023/08/16 02:27:30;;;;;;;12.90;6.10;;;;;;;-143.84;84.21;45052.88;5090361;28;20529;-56
2023/08/16 02:29:57;;;;;;;20.97;6.50;;;;;;;-143.84;84.22;45066.22;5090553;28;20451;-56
2023/08/16 02:32:24;;;;;;;11.00;5.93;;;;;;;-143.84;84.62;45050.97;5090391;28;20439;-55
2023/08/16 02:34:52;;;;;;;12.23;5.47;;;;;;;-143.84;84.75;45064.31;5090404;28;20937;-56
2023/08/16 02:37:20;;;;;;;19.60;6.40;;;;;;;-143.84;85.00;45056.69;5090531;28;20503;-55
2023/08/16 02:39:47;;;;;;;11.47;5.73;;;;;;;-143.84;84.83;45037.66;5090540;28;20448;-56
2023/08/16 02:42:14;;;;;;;11.40;5.77;;;;;;;-143.84;84.69;45064.31;5090245;28;20998;-55
2023/08/16 02:44:42;;;;;;;10.67;5.20;;;;;;;-143.84;84.92;45035.75;5090197;28;20485;-55
2023/08/16 02:47:09;;;;;;;13.93;6.20;;;;;;;-143.84;85.09;45056.69;5089923;28;20436;-55
2023/08/16 02:49:36;;;;;;;12.40;5.53;;;;;;;-143.84;85.31;45045.25;5090160;28;20497;-56
2023/08/16 02:52:03;;;;;;;12.40;5.20;;;;;;;-143.84;85.57;45079.53;5090319;28;20848;-55
2023/08/16 02:54:31;;;;;;;8.67;5.93;;;;;;;-143.84;86.00;45052.88;5089443;28;21305;-55
2023/08/16 02:56:59;;;;;;;11.90;6.07;;;;;;;-143.84;86.43;45033.84;5090272;28;20440;-56
2023/08/16 02:59:26;;;;;;;11.77;5.93;;;;;;;-143.84;86.82;45064.31;5090256;28;20937;-55
2023/08/16 03:01:54;;;;;;;10.30;5.33;;;;;;;-143.84;87.19;45049.06;5089857;28;20501;-55
2023/08/16 03:04:21;;;;;;;10.47;5.63;;;;;;;-143.84;87.11;45039.53;5089637;28;21039;-56
2023/08/16 03:06:49;;;;;;;11.87;5.97;;;;;;;-143.84;87.17;45049.06;5089780;28;20501;-56
2023/08/16 03:09:16;;;;;;;10.00;6.00;;;;;;;-143.84;86.74;45068.13;5089652;28;20471;-56
2023/08/16 03:11:44;;;;;;;12.20;5.60;;;;;;;-143.84;87.05;45043.34;5089926;28;20436;-56
2023/08/16 03:14:12;;;;;;;15.23;5.60;;;;;;;-143.84;87.59;45041.44;5089940;28;20436;-56
2023/08/16 03:16:39;;;;;;;13.20;5.80;;;;;;;-143.84;87.63;45045.25;5089883;28;20448;-56
2023/08/16 03:19:06;;;;;;;10.20;5.60;;;;;;;-143.84;87.70;45064.31;5089408;28;20429;-56
2023/08/16 03:21:34;;;;;;;10.00;6.13;;;;;;;-143.84;88.39;45077.63;5089389;28;20502;-55
2023/08/16 03:24:01;;;;;;;13.03;5.67;;;;;;;-143.84;88.44;45050.97;5089151;28;20455;-56
2023/08/16 03:26:28;;;;;;;15.27;6.97;;;;;;;-143.84;88.41;45047.16;5089135;28;20444;-56
2023/08/16 03:28:57;;;;;;;16.33;5.87;;;;;;;-143.84;88.30;45071.91;5089558;28;21046;-55
2023/08/16 03:31:24;;;;;;;28.90;5.40;;;;;;;-143.84;88.60;45047.16;5089406;28;20883;-56
2023/08/16 03:33:51;;;;;;;16.43;6.50;;;;;;;-143.84;88.50;45073.81;5089527;28;20444;-56
2023/08/16 03:36:18;;;;;;;13.60;6.00;;;;;;;-143.84;88.48;45039.53;5089439;28;20462;-55
2023/08/16 03:38:45;;;;;;;15.43;6.17;;;;;;;-143.84;88.58;45041.44;5089324;28;20447;-56
2023/08/16 03:41:12;;;;;;;16.03;7.10;;;;;;;-143.84;88.62;45085.25;5089205;28;20496;-56
2023/08/16 03:43:39;;;;;;;12.43;5.83;;;;;;;-143.84;88.81;45071.91;5089162;28;20448;-55
2023/08/16 03:46:08;;;;;;;14.93;6.10;;;;;;;-143.84;88.84;45056.69;5088999;28;20500;-56
2023/08/16 03:48:35;;;;;;;9.20;6.63;;;;;;;-143.84;88.73;45035.75;5089304;28;20509;-56
2023/08/16 03:51:02;;;;;;;13.47;5.60;;;;;;;-143.84;88.90;45056.69;5089197;28;20497;-56
2023/08/16 03:53:29;;;;;;;15.50;6.40;;;;;;;-143.84;89.21;45070.00;5089290;28;20918;-56
2023/08/16 03:55:58;;;;;;;18.00;6.40;;;;;;;-143.84;89.04;45070.00;5089063;28;20440;-55
2023/08/16 03:58:25;;;;;;;13.27;6.47;;;;;;;-143.84;89.14;45070.00;5089128;28;21002;-56
2023/08/16 04:00:53;;;;;;;10.07;5.33;;;;;;;-143.84;88.90;45041.44;5088928;28;20439;-55
2023/08/16 04:03:21;;;;;;;17.23;6.50;;;;;;;-143.84;88.87;45041.44;5088312;28;21047;-55
2023/08/16 04:05:48;;;;;;;15.13;6.83;;;;;;;-143.84;88.64;45045.25;5090250;28;20867;-55
2023/08/16 04:08:16;;;;;;;14.70;6.50;;;;;;;-143.84;88.44;45052.88;5093373;28;20483;-55
2023/08/16 04:10:43;;;;;;;20.40;5.83;;;;;;;-143.84;88.35;45056.69;5093229;28;20965;-55
2023/08/16 04:13:10;;;;;;;11.30;6.13;;;;;;;-143.84;88.12;45068.13;5093106;28;20439;-56
2023/08/16 04:15:37;;;;;;;13.40;6.77;;;;;;;-143.84;87.82;45079.53;5093160;28;20439;-55
2023/08/16 04:18:05;;;;;;;15.80;6.67;;;;;;;-143.84;88.02;45052.88;5093085;28;20436;-55
2023/08/16 04:20:33;;;;;;;20.53;6.77;;;;;;;-143.84;87.80;45060.50;5092977;28;20447;-55
2023/08/16 04:23:00;;;;;;;17.50;6.53;;;;;;;-143.84;87.46;45043.34;5092848;28;20439;-55
2023/08/16 04:25:27;;;;;;;12.90;6.60;;;;;;;-143.84;87.40;45060.50;5092765;28;20435;-55
2023/08/16 04:27:55;;;;;;;12.90;6.00;;;;;;;-143.84;87.27;45066.22;5092856;28;20513;-55
2023/08/16 04:30:22;;;;;;;11.83;6.10;;;;;;;-143.84;86.99;45041.44;5092598;28;20489;-55
2023/08/16 04:32:49;;;;;;;9.50;6.40;;;;;;;-143.84;86.71;45045.25;5075062;28;20448;-56
2023/08/16 04:35:16;;;;;;;12.97;6.60;;;;;;;-143.84;86.50;45054.78;5071547;28;20443;-55
2023/08/16 04:37:45;;;;;;;10.43;6.10;;;;;;;-143.84;86.08;45041.44;5071388;28;20992;-56
2023/08/16 04:40:12;;;;;;;16.20;6.40;;;;;;;-143.84;86.12;45054.78;5071922;28;20449;-56
2023/08/16 04:42:39;;;;;;;17.53;7.03;;;;;;;-143.84;85.31;45054.78;5071210;28;20445;-55
2023/08/16 04:45:08;;;;;;;13.33;6.53;;;;;;;-143.84;85.16;45039.53;5072057;28;20437;-56
2023/08/16 04:47:35;;;;;;;13.30;6.20;;;;;;;-143.84;84.94;45033.84;5072140;28;20444;-56
2023/08/16 04:50:03;;;;;;;12.93;5.93;;;;;;;-143.84;84.49;45012.88;5071036;28;20441;-56
2023/08/16 04:52:30;;;;;;;17.33;6.83;;;;;;;-143.84;84.12;45007.19;5070717;28;20945;-56
2023/08/16 04:54:59;;;;;;;11.00;6.27;;;;;;;-143.84;83.69;45050.97;5070702;28;20490;-55
2023/08/16 04:57:27;;;;;;;14.47;6.40;;;;;;;-143.84;83.26;45024.31;5070625;28;20437;-56
2023/08/16 04:59:54;;;;;;;17.80;5.90;;;;;;;-143.84;82.84;45024.31;5070368;28;21329;-55
2023/08/16 05:02:21;;;;;;;12.43;6.33;;;;;;;-143.84;82.63;45066.22;5070680;28;20475;-56
2023/08/16 05:04:48;;;;;;;11.70;5.60;;;;;;;-143.84;82.11;45033.84;5071172;28;20481;-55
2023/08/16 05:07:15;;;;;;;20.53;6.40;;;;;;;-143.84;82.20;45033.84;5072193;28;21014;-55
2023/08/16 05:09:42;;;;;;;11.33;6.30;;;;;;;-143.84;82.00;45047.16;5072076;28;21072;-55
2023/08/16 05:12:11;;;;;;;12.53;5.80;;;;;;;-143.84;81.77;45035.75;5071799;28;20470;-55
2023/08/16 05:14:38;;;;;;;11.63;5.57;;;;;;;-143.84;80.96;45033.84;5071347;28;20441;-56
2023/08/16 05:17:05;;;;;;;13.87;6.17;;;;;;;-143.84;81.00;45030.03;5070425;28;20437;-55
2023/08/16 05:19:32;;;;;;;14.67;5.97;;;;;;;-143.84;80.56;45012.88;5070820;28;20444;-56
2023/08/16 05:21:59;;;;;;;20.03;6.57;;;;;;;-143.84;80.51;45035.75;5070752;28;21004;-55
2023/08/16 05:24:26;;;;;;;18.90;5.63;;;;;;;-143.84;80.30;45039.53;5070875;28;20440;-55
2023/08/16 05:26:53;;;;;;;16.00;7.10;;;;;;;-143.84;80.57;45026.22;5070840;28;20456;-55
2023/08/16 05:29:22;;;;;;;11.13;5.63;;;;;;;-143.84;80.28;45024.31;5070895;28;20488;-56
2023/08/16 05:31:49;;;;;;;15.40;6.50;;;;;;;-143.84;80.78;45028.13;5071423;28;21016;-55
2023/08/16 05:34:18;;;;;;;19.53;6.70;;;;;;;-143.84;80.73;45064.31;5071514;28;20436;-56
2023/08/16 05:36:49;;;;;;;19.20;5.70;;;;;;;-143.84;80.58;45031.94;5071216;28;20535;-55
2023/08/16 05:39:17;;;;;;;13.70;6.23;;;;;;;-143.84;80.39;45052.88;5071215;28;20437;-55
2023/08/16 05:41:44;;;;;;;13.73;6.00;;;;;;;-143.84;80.16;45012.88;5070390;28;20437;-55
2023/08/16 05:44:11;;;;;;;17.33;5.53;;;;;;;-143.84;80.22;45047.16;5070121;28;20437;-56
2023/08/16 05:46:39;;;;;;;10.93;5.53;;;;;;;-143.84;79.65;45033.84;5070692;28;20498;-55
2023/08/16 05:49:07;;;;;;;16.53;5.60;;;;;;;-143.84;79.38;45049.06;5071001;28;20806;-56
2023/08/16 05:51:34;;;;;;;10.33;5.27;;;;;;;-143.84;79.48;45007.19;5070982;28;20433;-55
2023/08/16 05:54:02;;;;;;;18.13;5.47;;;;;;;-143.84;79.31;45037.66;5071140;28;20506;-55
2023/08/16 05:56:29;;;;;;;17.03;5.40;;;;;;;-143.84;78.91;45031.94;5070749;28;20440;-55
2023/08/16 05:58:56;;;;;;;28.73;5.70;;;;;;;-143.84;78.97;45030.03;5070772;28;20441;-56
2023/08/16 06:01:24;;;;;;;9.63;4.90;;;;;;;-143.84;78.67;44988.13;5071170;28;20858;-55
2023/08/16 06:03:52;;;;;;;17.40;5.20;;;;;;;-143.84;77.49;45035.75;5070633;28;20542;-55
2023/08/16 06:06:19;;;;;;;10.73;4.97;;;;;;;-143.84;75.25;45020.50;5070906;28;20973;-55
2023/08/16 06:08:46;;;;;;;13.63;5.20;;;;;;;-143.84;73.84;45014.78;5070785;28;20492;-55
2023/08/16 06:11:13;;;;;;;15.83;4.80;;;;;;;-143.84;72.67;44997.66;5070309;28;20445;-55
2023/08/16 06:13:41;;;;;;;12.70;5.20;;;;;;;-143.84;70.94;45018.59;5070954;28;20490;-55
2023/08/16 06:16:08;;;;;;;9.63;4.93;;;;;;;-143.84;70.89;44963.38;5070683;28;20445;-55
2023/08/16 06:18:35;;;;;;;17.53;4.30;;;;;;;-143.84;69.15;45010.97;5070813;28;20440;-55
2023/08/16 06:21:04;;;;;;;10.37;4.30;;;;;;;-143.84;69.27;45009.09;5070494;28;20441;-56
2023/08/16 06:23:31;;;;;;;18.70;4.27;;;;;;;-143.84;69.58;44991.94;5070579;28;20441;-55
2023/08/16 06:38:09;;;;;;;16.40;5.00;;;;;;;-143.84;69.46;45030.03;5062302;28;20559;-55
2023/08/16 06:40:36;;;;;;;9.97;5.70;;;;;;;-143.84;69.52;44991.94;5062983;28;20501;-55
2023/08/16 06:43:03;;;;;;;19.63;4.83;;;;;;;-143.84;68.70;44988.13;5062460;28;20437;-55
2023/08/16 06:45:31;;;;;;;17.53;5.70;;;;;;;-143.84;68.80;45026.22;5062629;28;20445;-55
2023/08/16 06:47:59;;;;;;;12.97;4.90;;;;;;;-143.84;68.32;45001.47;5062494;28;20441;-55
2023/08/16 06:50:27;;;;;;;11.97;4.63;;;;;;;-143.84;68.09;45009.09;5062859;28;20523;-56
2023/08/16 06:52:55;;;;;;;9.10;4.93;;;;;;;-143.84;67.34;45022.41;5062757;28;20444;-55
2023/08/16 06:55:23;;;;;;;10.20;5.00;;;;;;;-143.84;66.90;45049.06;5062698;28;20841;-55
2023/08/16 06:57:50;;;;;;;14.27;5.83;;;;;;;-143.84;66.50;44984.31;5062366;28;20877;-55
2023/08/16 07:00:18;;;;;;;9.60;4.87;;;;;;;-143.84;66.77;45010.97;5062308;28;20505;-55
2023/08/16 07:02:45;;;;;;;11.17;5.03;;;;;;;-143.84;65.53;44999.56;5062299;28;20437;-55
2023/08/16 07:05:13;;;;;;;9.00;4.90;;;;;;;-143.84;64.04;45010.97;5062132;28;20441;-55
2023/08/16 07:07:41;;;;;;;8.63;4.70;;;;;;;-143.84;63.57;45010.97;5061435;28;20484;-55
2023/08/16 07:10:09;;;;;;;23.30;5.50;;;;;;;-143.84;63.80;45009.09;5062139;28;20469;-55
2023/08/16 07:12:38;;;;;;;13.33;5.63;;;;;;;-143.84;63.15;44976.72;5062144;27;20448;-55
2023/08/16 07:15:06;;;;;;;22.93;4.60;;;;;;;-143.84;62.80;44995.75;5062122;28;20450;-55
2023/08/16 07:17:33;;;;;;;18.80;5.13;;;;;;;-143.84;62.91;44991.94;5062103;28;20432;-55
2023/08/16 07:20:00;;;;;;;16.10;5.67;;;;;;;-143.84;60.66;44971.00;5062198;28;20441;-55
2023/08/16 07:22:28;;;;;;;7.43;4.30;;;;;;;-143.84;58.35;44950.06;5062195;28;20775;-55
2023/08/16 07:24:55;;;;;;;17.10;5.30;;;;;;;-143.84;55.19;44944.34;5061977;28;20550;-55
2023/08/16 07:27:22;;;;;;;10.40;4.70;;;;;;;-143.84;53.81;44957.66;5062861;28;20479;-55
2023/08/16 07:29:51;;;;;;;14.93;4.70;;;;;;;-143.84;54.07;44927.19;5063757;28;20437;-55
2023/08/16 07:32:18;;;;;;;16.27;5.17;;;;;;;-143.84;51.93;44911.97;5063526;28;20448;-55
2023/08/16 07:34:45;;;;;;;12.07;4.73;;;;;;;-143.84;50.85;44946.25;5063558;28;20934;-55
2023/08/16 07:37:13;;;;;;;13.57;4.87;;;;;;;-143.84;50.43;44927.19;5060194;28;20490;-55
2023/08/16 07:39:40;;;;;;;13.10;5.30;;;;;;;-143.84;48.06;44915.78;5050452;28;20438;-55
2023/08/16 07:42:08;;;;;;;13.60;4.70;;;;;;;-143.84;47.60;44953.88;5050080;28;20895;-55
2023/08/16 07:44:36;;;;;;;11.57;5.33;;;;;;;-143.84;47.46;44925.31;5050150;28;20433;-55
2023/08/16 07:47:05;;;;;;;6.20;4.03;;;;;;;-143.84;48.00;44931.00;5049806;28;20473;-55
2023/08/16 07:49:32;;;;;;;16.40;4.30;;;;;;;-143.84;48.25;44942.44;5049889;28;20475;-55
2023/08/16 07:51:59;;;;;;;16.13;4.67;;;;;;;-143.84;48.57;44915.78;5049603;28;20859;-55
2023/08/16 07:54:27;;;;;;;19.17;5.27;;;;;;;-143.84;49.29;44951.97;5049930;28;20852;-55
2023/08/16 07:56:54;;;;;;;16.30;5.30;;;;;;;-143.84;51.51;44929.09;5049974;28;20852;-53
2023/08/16 07:59:21;;;;;;;14.67;5.80;;;;;;;-143.84;54.17;44953.88;5049892;28;20501;-52
2023/08/16 08:01:49;;;;;;;15.00;5.40;;;;;;;-143.84;55.33;44980.53;5045610;28;20461;-52
2023/08/16 08:04:18;;;;;;;12.10;5.10;;;;;;;-143.84;56.53;44917.69;5056992;28;20540;-52
2023/08/16 08:06:45;;;;;;;18.07;5.20;;;;;;;-143.84;55.39;44919.59;5047130;28;20473;-52
2023/08/16 08:09:12;;;;;;;9.30;4.00;;;;;;;-143.84;52.32;44911.97;5048959;28;20931;-52
2023/08/16 08:11:39;;;;;;;13.67;4.80;;;;;;;-143.84;52.92;44910.06;5049674;28;20434;-53
2023/08/16 08:14:06;;;;;;;12.10;4.53;;;;;;;-143.84;49.71;44889.13;5049372;28;20434;-55
2023/08/16 08:16:33;;;;;;;15.80;4.70;;;;;;;-143.84;48.34;44900.53;5048901;28;20919;-56
2023/08/16 08:19:00;;;;;;;12.33;4.37;;;;;;;-143.84;46.48;44904.34;5049428;28;20482;-55
2023/08/16 08:21:29;;;;;;;7.13;4.10;;;;;;;-143.84;45.33;44887.22;5049371;28;20437;-56
2023/08/16 08:23:56;;;;;;;9.83;4.30;;;;;;;-143.84;44.23;44896.75;5048171;28;21016;-56
2023/08/16 08:26:25;;;;;;;11.83;4.33;;;;;;;-143.84;44.89;44891.03;5047798;28;20473;-56
2023/08/16 08:28:53;;;;;;;7.97;4.23;;;;;;;-143.84;44.58;44889.13;5046579;28;20446;-56
2023/08/16 08:31:21;;;;;;;13.90;4.60;;;;;;;-143.84;43.36;44881.50;5045942;28;20441;-54
2023/08/16 08:33:48;;;;;;;17.13;4.80;;;;;;;-143.84;43.76;44904.34;5046044;28;20461;-54
2023/08/16 08:36:15;;;;;;;11.37;3.50;;;;;;;-143.84;43.84;44879.59;5045779;28;20489;-54
2023/08/16 08:38:44;;;;;;;9.37;4.70;;;;;;;-143.84;43.90;44849.13;5046912;28;20471;-54
2023/08/16 08:41:11;;;;;;;9.20;4.07;;;;;;;-143.84;42.30;44873.88;5047500;28;20430;-54
2023/08/16 08:43:39;;;;;;;18.83;4.70;;;;;;;-143.84;41.32;44860.56;5047568;28;21162;-53
2023/08/16 08:46:07;;;;;;;14.80;5.10;;;;;;;-143.84;41.15;44852.94;5047505;28;20446;-51
2023/08/16 09:01:40;;;;;;;9.17;4.50;;;;;;;-143.84;40.60;44875.78;5086081;28;20547;-53
2023/08/16 09:04:08;;;;;;;8.63;4.07;;;;;;;-143.84;40.33;44856.75;5086517;28;20455;-54
2023/08/16 09:06:36;;;;;;;13.63;4.13;;;;;;;-143.84;40.37;44875.78;5086004;28;20444;-53
2023/08/16 09:09:04;;;;;;;14.30;4.87;;;;;;;-143.84;40.36;44877.69;5086083;28;20436;-53
2023/08/16 09:11:31;;;;;;;10.73;4.60;;;;;;;-143.84;42.13;44883.41;5086110;28;21454;-53
2023/08/16 09:14:02;;;;;;;13.37;4.37;;;;;;;-143.84;41.45;44833.91;5086322;28;20433;-53
2023/08/16 09:16:29;;;;;;;17.57;4.60;;;;;;;-143.84;41.59;44860.56;5085958;28;20878;-53
2023/08/16 09:18:57;;;;;;;13.60;3.80;;;;;;;-143.84;40.84;44868.19;5085949;28;20442;-53
2023/08/16 09:21:28;;;;;;;11.33;4.50;;;;;;;-143.84;41.73;44875.78;5085924;28;20872;-53
2023/08/16 09:23:59;;;;;;;7.30;4.83;;;;;;;-143.84;41.48;44862.47;5085678;28;20523;-53
2023/08/16 09:26:28;;;;;;;9.50;4.87;;;;;;;-143.84;41.05;44889.13;5085822;28;20431;-54
2023/08/16 09:28:58;;;;;;;12.93;4.77;;;;;;;-143.84;41.96;44843.44;5085754;28;20427;-53
2023/08/16 09:31:29;;;;;;;12.07;4.53;;;;;;;-143.84;41.24;44835.81;5085801;28;20531;-53
2023/08/16 09:33:59;;;;;;;16.00;4.10;;;;;;;-143.84;40.75;44885.31;5085807;28;20448;-53
2023/08/16 09:36:29;;;;;;;12.93;4.80;;;;;;;-143.84;41.56;44870.09;5085286;28;20443;-53
2023/08/16 09:39:01;;;;;;;11.70;4.60;;;;;;;-143.84;42.22;44885.31;5085368;28;20468;-54
2023/08/16 09:41:28;;;;;;;14.07;4.37;;;;;;;-143.84;42.98;44885.31;5085544;28;20531;-54
2023/08/16 09:44:03;;;;;;;13.10;5.43;;;;;;;-143.84;43.22;44917.69;5085375;28;20440;-54
2023/08/16 09:46:31;;;;;;;13.03;4.87;;;;;;;-143.84;44.21;44887.22;5085385;28;20436;-54
2023/08/16 09:49:04;;;;;;;11.53;4.47;;;;;;;-143.84;45.38;44904.34;5085497;28;20448;-54
2023/08/16 09:51:33;;;;;;;14.43;4.90;;;;;;;-143.84;44.64;44902.44;5086540;28;20509;-54
2023/08/16 09:54:02;;;;;;;9.47;4.33;;;;;;;-143.84;43.63;44891.03;5086934;28;20941;-54
2023/08/16 09:56:33;;;;;;;9.70;4.27;;;;;;;-143.84;43.82;44879.59;5087012;28;20880;-54
2023/08/16 09:59:01;;;;;;;6.47;4.63;;;;;;;-143.84;44.51;44904.34;5081956;28;20480;-54
2023/08/16 10:01:28;;;;;;;7.97;4.47;;;;;;;-143.84;43.67;44866.28;5067513;28;20949;-54
2023/08/16 10:03:56;;;;;;;12.90;4.50;;;;;;;-143.84;43.83;44856.75;5052140;28;20437;-54
2023/08/16 10:06:25;;;;;;;11.57;4.37;;;;;;;-143.84;43.29;44864.38;5051933;28;20453;-54
2023/08/16 10:08:53;;;;;;;9.90;4.27;;;;;;;-143.84;43.61;44879.59;5051800;28;20450;-54
2023/08/16 10:11:20;;;;;;;13.77;4.40;;;;;;;-143.84;43.50;44864.38;5051605;28;20477;-54
2023/08/16 10:13:48;;;;;;;11.40;4.53;;;;;;;-143.84;43.52;44860.56;5065613;28;20455;-55
2023/08/16 10:16:16;;;;;;;9.63;4.50;;;;;;;-143.84;43.32;44881.50;5072070;28;20463;-54
2023/08/16 10:18:44;;;;;;;12.10;5.40;;;;;;;-143.84;44.24;44894.84;5073139;28;20452;-54
2023/08/16 10:21:16;;;;;;;6.03;4.17;;;;;;;-143.84;43.82;44877.69;5073043;28;20437;-55
2023/08/16 10:23:45;;;;;;;10.30;4.57;;;;;;;-143.84;43.57;44881.50;5073202;28;20526;-52
2023/08/16 10:26:15;;;;;;;10.70;5.07;;;;;;;-143.84;42.95;44885.31;5073468;28;20444;-52
2023/08/16 10:28:47;;;;;;;11.73;4.63;;;;;;;-143.84;43.73;44858.66;5073116;28;20486;-52
2023/08/16 10:31:18;;;;;;;9.33;4.10;;;;;;;-143.84;44.03;44852.94;5073263;28;20473;-52
2023/08/16 10:33:48;;;;;;;8.03;4.60;;;;;;;-143.84;43.56;44832.00;5073384;28;20445;-52
2023/08/16 10:36:16;;;;;;;7.80;4.43;;;;;;;-143.84;42.49;44866.28;5073410;28;20448;-52
2023/08/16 10:38:45;;;;;;;14.90;5.07;;;;;;;-143.84;43.07;44858.66;5072974;28;20429;-52
2023/08/16 10:41:13;;;;;;;9.57;5.10;;;;;;;-143.84;41.82;44866.28;5072997;28;20436;-52
2023/08/16 10:43:46;;;;;;;14.50;4.03;;;;;;;-143.84;42.22;44873.88;5070449;28;20961;-52
2023/08/16 10:46:14;;;;;;;11.27;4.63;;;;;;;-143.84;42.56;44879.59;5076763;28;20502;-52
2023/08/16 10:48:41;;;;;;;7.13;3.67;;;;;;;-143.84;43.06;44873.88;5070182;28;20817;-52
2023/08/16 10:51:09;;;;;;;6.77;4.10;;;;;;;-143.84;42.48;44858.66;5065488;28;20515;-51
2023/08/16 10:53:37;;;;;;;9.23;4.53;;;;;;;-143.84;43.19;44866.28;5066195;28;20452;-52
2023/08/16 10:56:09;;;;;;;7.80;4.47;;;;;;;-143.84;43.62;44877.69;5068433;28;20539;-52
2023/08/16 10:58:47;;;;;;;11.30;4.63;;;;;;;-143.84;43.87;44913.88;5067997;28;20533;-51
2023/08/16 11:01:14;;;;;;;18.20;4.60;;;;;;;-143.84;43.75;44885.31;5073180;28;20475;-52
2023/08/16 11:03:43;;;;;;;7.33;4.10;;;;;;;-143.84;43.35;44913.88;5077558;28;20451;-52
2023/08/16 11:06:12;;;;;;;13.90;4.13;;;;;;;-143.84;44.45;44889.13;5073967;28;20487;-51
2023/08/16 11:08:41;;;;;;;12.43;4.40;;;;;;;-143.84;43.67;44892.94;5072279;28;20453;-51
2023/08/16 11:11:11;;;;;;;13.70;4.60;;;;;;;-143.84;44.00;44889.13;5071134;28;20465;-52
2023/08/16 11:13:40;;;;;;;10.53;4.43;;;;;;;-143.84;44.18;44896.75;5072835;28;20454;-52
2023/08/16 11:16:09;;;;;;;7.60;3.87;;;;;;;-143.84;45.11;44910.06;5084450;28;20437;-52
2023/08/16 11:18:38;;;;;;;8.97;4.33;;;;;;;-143.84;44.96;44913.88;5074527;28;20447;-53
2023/08/16 11:21:07;;;;;;;10.87;4.77;;;;;;;-143.84;45.14;44892.94;5071230;28;20437;-53
2023/08/16 11:23:37;;;;;;;14.10;4.07;;;;;;;-143.84;45.13;44915.78;5071078;28;20441;-53
2023/08/16 11:26:05;;;;;;;18.03;5.10;;;;;;;-143.84;44.88;44942.44;5073767;28;20537;-53
2023/08/16 11:28:34;;;;;;;10.47;4.27;;;;;;;-143.84;45.95;44902.44;5071130;28;20448;-53
2023/08/16 11:31:03;;;;;;;11.17;4.73;;;;;;;-143.84;45.78;44934.81;5088375;28;20532;-55
2023/08/16 11:33:34;;;;;;;11.43;4.73;;;;;;;-143.84;44.28;44931.00;5072829;28;20460;-56
2023/08/16 11:36:02;;;;;;;8.87;3.80;;;;;;;-143.84;44.20;44900.53;5082058;28;20954;-55
2023/08/16 11:38:30;;;;;;;11.40;4.10;;;;;;;-143.84;45.18;44915.78;5072428;28;20569;-54
2023/08/16 11:40:57;;;;;;;8.13;3.87;;;;;;;-143.84;44.01;44906.25;5069275;28;20448;-53